0L7 weather

Jean Airport
Jean, Nevada, United States

Public forecast

Using degrees Fahrenheit for public forecast. Weather courtesy of forecast.io.

METAR (pilot weather report)

Closest report is Henderson Executive Airport, 15.5 nm (28.8 km) NE. Retrieved 2019/03/18 16:56 UTC (45 minutes ago):

KHND 181656Z 34003KT 10SM CLR 18/M02 A3012 RMK AO2 SLP190 T01831022 $

TAF (pilot weather forecast)

Closest forecast is Henderson Executive Airport, 15.5 nm (28.8 km) NE. Retrieved 2019/03/18 12:24 UTC (5 hours ago):

TAF KHND 181122Z 1812/1912 17005KT P6SM SKC FM181700 05006KT P6SM FEW100 FM190200 VRB05KT P6SM FEW250 FM190600 18006KT P6SM SCT250